createdAt,value
2023-05-03T00:00:50.997Z,3.33
2023-05-03T00:03:22.815Z,4.30
2023-05-03T00:05:50.350Z,4.43
2023-05-03T00:08:17.695Z,2.40
2023-05-03T00:10:45.302Z,5.30
2023-05-03T00:13:13.553Z,6.55
2023-05-03T00:15:40.998Z,3.00
2023-05-03T00:18:08.819Z,3.05
2023-05-03T00:20:36.885Z,4.47
2023-05-03T00:23:04.531Z,8.00
2023-05-03T00:25:32.040Z,4.30
2023-05-03T00:27:59.396Z,3.05
2023-05-03T00:30:26.806Z,4.10
2023-05-03T00:32:54.210Z,4.60
2023-05-03T00:35:21.727Z,3.88
2023-05-03T00:37:49.113Z,7.53
2023-05-03T00:40:18.830Z,4.82
2023-05-03T00:42:46.690Z,3.47
2023-05-03T00:45:14.194Z,5.50
2023-05-03T00:47:42.432Z,5.05
2023-05-03T00:50:12.008Z,6.57
2023-05-03T00:52:40.557Z,4.93
2023-05-03T00:55:10.063Z,5.38
2023-05-03T00:57:37.486Z,6.13
2023-05-03T01:00:05.450Z,5.72
2023-05-03T01:02:34.392Z,4.85
2023-05-03T01:05:02.591Z,8.07
2023-05-03T01:07:44.987Z,8.63
2023-05-03T01:10:24.516Z,6.95
2023-05-03T01:13:29.726Z,8.55
2023-05-03T01:16:08.285Z,9.00
2023-05-03T01:18:40.195Z,10.80
2023-05-03T01:21:10.042Z,10.25
2023-05-03T01:23:46.761Z,11.98
2023-05-03T01:26:21.706Z,11.38
2023-05-03T01:28:49.114Z,12.60
2023-05-03T01:31:42.930Z,16.35
2023-05-03T01:34:27.874Z,11.52
2023-05-03T01:36:59.675Z,14.40
2023-05-03T01:39:32.054Z,14.38
2023-05-03T01:42:01.301Z,12.57
2023-05-03T01:44:30.536Z,18.08
2023-05-03T01:46:58.282Z,16.48
2023-05-03T01:49:25.745Z,14.50
2023-05-03T01:51:53.135Z,13.00
2023-05-03T01:54:20.757Z,15.65
2023-05-03T01:56:48.220Z,12.23
2023-05-03T01:59:16.098Z,13.50
2023-05-03T02:01:43.564Z,13.95
2023-05-03T02:04:11.263Z,12.82
2023-05-03T02:06:38.844Z,14.68
2023-05-03T02:09:06.534Z,13.45
2023-05-03T02:11:34.242Z,13.55
2023-05-03T02:14:01.646Z,14.43
2023-05-03T02:16:29.435Z,13.52
2023-05-03T02:18:59.573Z,15.90
2023-05-03T02:21:27.254Z,13.88
2023-05-03T02:23:54.630Z,13.57
2023-05-03T02:26:22.476Z,11.80
2023-05-03T02:28:49.827Z,12.10
2023-05-03T02:31:17.355Z,11.35
2023-05-03T02:33:44.921Z,12.43
2023-05-03T02:36:13.227Z,14.48
2023-05-03T02:38:40.906Z,11.30
2023-05-03T02:41:08.313Z,14.13
2023-05-03T02:43:35.743Z,15.50
2023-05-03T02:46:03.499Z,16.08
2023-05-03T02:48:30.919Z,13.38
2023-05-03T02:50:58.358Z,14.73
2023-05-03T02:53:25.845Z,13.55
2023-05-03T02:55:55.634Z,14.20
2023-05-03T02:58:23.236Z,12.75
2023-05-03T03:00:51.193Z,14.65
2023-05-03T03:03:19.174Z,14.63
2023-05-03T03:05:46.843Z,14.35
2023-05-03T03:08:16.091Z,13.68
2023-05-03T03:10:44.119Z,16.20
2023-05-03T03:13:12.780Z,16.77
2023-05-03T03:15:40.153Z,13.75
2023-05-03T03:18:07.706Z,15.50
2023-05-03T03:20:36.417Z,13.55
2023-05-03T03:23:03.970Z,15.23
2023-05-03T03:25:32.334Z,16.13
2023-05-03T03:27:59.682Z,13.13
2023-05-03T03:30:27.781Z,15.75
2023-05-03T03:33:04.648Z,13.65
2023-05-03T03:35:38.817Z,13.88
2023-05-03T03:38:06.923Z,14.65
2023-05-03T03:40:38.112Z,12.83
2023-05-03T03:43:06.335Z,14.88
2023-05-03T03:45:33.794Z,13.25
2023-05-03T03:48:01.411Z,16.92
2023-05-03T03:50:28.985Z,13.68
2023-05-03T03:52:57.098Z,13.50
2023-05-03T03:55:24.662Z,14.85
2023-05-03T03:57:54.649Z,14.10
2023-05-03T04:00:23.821Z,14.77
2023-05-03T04:02:58.886Z,13.35
2023-05-03T04:05:26.401Z,18.20
2023-05-03T04:07:54.244Z,18.23
2023-05-03T04:10:21.650Z,14.85
2023-05-03T04:12:49.482Z,14.40
2023-05-03T04:15:17.551Z,14.43
2023-05-03T04:17:46.878Z,16.95
2023-05-03T04:20:14.480Z,16.73
2023-05-03T04:22:46.376Z,15.60
2023-05-03T04:25:17.389Z,14.73
2023-05-03T04:27:51.588Z,16.10
2023-05-03T04:30:20.745Z,16.10
2023-05-03T04:32:54.282Z,16.45
2023-05-03T04:37:50.672Z,18.08
2023-05-03T04:40:21.828Z,16.95
2023-05-03T04:42:58.832Z,16.83
2023-05-03T04:45:27.205Z,17.35
2023-05-03T04:47:55.192Z,15.73
2023-05-03T04:50:22.640Z,19.15
2023-05-03T04:52:51.754Z,17.40
2023-05-03T04:55:21.239Z,20.00
2023-05-03T04:57:48.941Z,16.38
2023-05-03T05:00:17.525Z,17.77
2023-05-03T05:02:51.581Z,18.65
2023-05-03T05:05:20.559Z,17.83
2023-05-03T05:07:48.664Z,16.13
2023-05-03T05:10:18.555Z,19.95
2023-05-03T05:12:46.496Z,16.55
2023-05-03T05:15:13.975Z,16.17
2023-05-03T05:17:41.974Z,20.90
2023-05-03T05:20:13.257Z,15.02
2023-05-03T05:22:44.973Z,16.25
2023-05-03T05:25:12.869Z,20.35
2023-05-03T05:27:41.947Z,14.95
2023-05-03T05:30:09.690Z,18.73
2023-05-03T05:32:40.176Z,16.30
2023-05-03T05:35:10.365Z,17.52
2023-05-03T05:37:37.852Z,17.27
2023-05-03T05:40:07.848Z,16.38
2023-05-03T05:42:41.038Z,16.05
2023-05-03T05:45:08.900Z,15.68
2023-05-03T05:47:37.677Z,19.50
2023-05-03T05:50:16.879Z,17.75
2023-05-03T05:52:47.285Z,15.45
2023-05-03T05:55:15.846Z,16.88
2023-05-03T05:57:46.099Z,17.83
2023-05-03T06:00:15.630Z,15.20
2023-05-03T06:02:44.923Z,17.10
2023-05-03T06:05:16.953Z,16.77
2023-05-03T06:07:44.534Z,15.82
2023-05-03T06:10:12.019Z,16.85
2023-05-03T06:12:43.550Z,15.50
2023-05-03T06:15:15.599Z,16.35
2023-05-03T06:17:45.300Z,18.30
2023-05-03T06:20:13.006Z,17.83
2023-05-03T06:22:41.677Z,15.20
2023-05-03T06:25:13.551Z,14.77
2023-05-03T06:27:44.392Z,16.00
2023-05-03T06:30:13.003Z,13.98
2023-05-03T06:32:42.779Z,16.63
2023-05-03T06:35:11.471Z,16.08
2023-05-03T06:37:40.574Z,15.40
2023-05-03T06:40:08.432Z,17.75
2023-05-03T06:42:37.449Z,16.70
2023-05-03T06:45:09.286Z,15.13
2023-05-03T06:47:40.079Z,17.73
2023-05-03T06:50:08.571Z,14.93
2023-05-03T06:52:36.012Z,15.85
2023-05-03T06:55:04.862Z,15.80
2023-05-03T06:57:32.472Z,17.85
2023-05-03T06:59:59.877Z,17.77
2023-05-03T07:02:27.557Z,17.67
2023-05-03T07:04:55.027Z,17.48
2023-05-03T07:07:22.499Z,18.67
2023-05-03T07:09:50.244Z,18.67
2023-05-03T07:12:17.667Z,17.88
2023-05-03T07:14:45.071Z,20.90
2023-05-03T07:17:12.442Z,15.93
2023-05-03T07:19:39.822Z,16.85
2023-05-03T07:22:07.159Z,16.48
2023-05-03T07:24:34.547Z,17.42
2023-05-03T07:27:02.213Z,17.48
2023-05-03T07:29:29.567Z,16.70
2023-05-03T07:31:56.952Z,16.65
2023-05-03T07:34:24.495Z,19.10
2023-05-03T07:36:54.779Z,18.33
2023-05-03T07:39:22.191Z,18.17
2023-05-03T07:41:49.801Z,17.17
2023-05-03T07:44:17.215Z,22.52
2023-05-03T07:46:44.639Z,17.83
2023-05-03T07:49:12.151Z,20.27
2023-05-03T07:51:39.869Z,18.83
2023-05-03T07:54:07.304Z,19.85
2023-05-03T07:56:34.699Z,19.67
2023-05-03T08:01:32.373Z,18.13
2023-05-03T08:04:00.090Z,16.98
2023-05-03T08:06:28.247Z,24.88
2023-05-03T08:08:55.821Z,23.48
2023-05-03T08:11:23.232Z,27.83
2023-05-03T08:13:50.992Z,24.08
2023-05-03T08:16:18.394Z,16.88
2023-05-03T08:18:46.863Z,21.45
2023-05-03T08:21:17.552Z,18.50
2023-05-03T08:23:45.125Z,19.25
2023-05-03T08:26:14.270Z,16.10
2023-05-03T08:28:42.417Z,15.40
2023-05-03T08:31:10.082Z,17.77
2023-05-03T08:33:37.619Z,17.08
2023-05-03T08:36:05.633Z,15.02
2023-05-03T08:38:34.078Z,19.58
2023-05-03T08:41:08.676Z,10.43
2023-05-03T08:43:41.971Z,7.82
2023-05-03T08:46:12.685Z,8.07
2023-05-03T08:48:40.450Z,16.45
2023-05-03T08:51:11.175Z,18.77
2023-05-03T08:53:38.584Z,13.95
2023-05-03T08:56:10.494Z,14.40
2023-05-03T08:58:38.588Z,18.05
2023-05-03T09:01:07.273Z,19.02
2023-05-03T09:03:35.967Z,15.98
2023-05-03T09:06:03.626Z,13.90
2023-05-03T09:08:31.603Z,14.88
2023-05-03T09:10:59.032Z,13.50
2023-05-03T09:13:32.321Z,13.90
2023-05-03T09:15:59.916Z,11.70
2023-05-03T09:18:27.441Z,8.05
2023-05-03T09:20:55.984Z,8.10
2023-05-03T09:23:27.222Z,31.17
2023-05-03T09:25:54.895Z,9.55
2023-05-03T09:28:22.467Z,13.98
2023-05-03T09:31:03.908Z,9.77
2023-05-03T09:33:31.368Z,7.63
2023-05-03T09:36:04.025Z,6.18
2023-05-03T09:38:33.913Z,10.93
2023-05-03T09:41:01.622Z,16.67
2023-05-03T09:43:29.346Z,11.07
2023-05-03T09:46:12.260Z,9.93
2023-05-03T09:48:40.613Z,11.20
2023-05-03T09:51:09.459Z,10.38
2023-05-03T09:53:38.515Z,8.05
2023-05-03T09:56:13.722Z,11.70
2023-05-03T09:58:42.475Z,4.63
2023-05-03T10:01:10.613Z,5.30
2023-05-03T10:03:44.010Z,9.07
2023-05-03T10:06:32.730Z,3.28
2023-05-03T10:09:12.210Z,3.80
2023-05-03T10:11:43.244Z,8.05
2023-05-03T10:14:10.893Z,3.42
2023-05-03T10:16:41.218Z,7.28
2023-05-03T10:19:08.545Z,4.82
2023-05-03T10:21:56.966Z,4.47
2023-05-03T10:24:24.397Z,0.60
2023-05-03T10:26:52.282Z,4.07
2023-05-03T10:29:34.687Z,3.30
2023-05-03T10:34:39.694Z,5.95
2023-05-03T10:37:10.393Z,6.72
2023-05-03T10:39:44.178Z,8.93
2023-05-03T10:42:11.582Z,7.22
2023-05-03T10:44:50.030Z,6.68
2023-05-03T10:47:23.458Z,11.10
2023-05-03T10:50:15.548Z,6.38
2023-05-03T10:52:42.906Z,7.22
2023-05-03T10:55:11.079Z,11.98
2023-05-03T10:57:41.437Z,4.45
2023-05-03T11:00:32.083Z,7.15
2023-05-03T11:03:09.591Z,4.70
2023-05-03T11:05:38.396Z,6.95
2023-05-03T11:08:13.975Z,6.57
2023-05-03T11:10:42.019Z,4.20
2023-05-03T11:13:09.620Z,5.85
2023-05-03T11:15:37.067Z,6.03
2023-05-03T11:18:09.058Z,8.50
2023-05-03T11:20:37.078Z,8.63
2023-05-03T11:23:06.149Z,5.57
2023-05-03T11:25:34.425Z,4.30
2023-05-03T11:28:02.813Z,5.43
2023-05-03T11:30:32.751Z,3.33
2023-05-03T11:33:00.750Z,1.75
2023-05-03T11:35:30.190Z,2.25
2023-05-03T11:37:57.756Z,2.97
2023-05-03T11:40:26.207Z,4.60
2023-05-03T11:42:54.845Z,3.35
2023-05-03T11:45:31.570Z,6.13
2023-05-03T11:47:59.491Z,1.50
2023-05-03T11:50:44.371Z,3.42
2023-05-03T11:53:16.280Z,5.68
2023-05-03T11:55:49.134Z,1.02
2023-05-03T11:58:21.866Z,5.03
2023-05-03T12:00:50.699Z,3.10
2023-05-03T12:03:19.192Z,2.42
2023-05-03T12:05:48.542Z,1.60
2023-05-03T12:08:20.973Z,2.05
2023-05-03T12:10:50.337Z,1.70
2023-05-03T12:13:38.852Z,1.33
2023-05-03T12:16:13.815Z,5.75
2023-05-03T12:19:03.832Z,4.35
2023-05-03T12:21:54.279Z,3.70
2023-05-03T12:24:33.380Z,3.20
2023-05-03T12:27:02.919Z,3.22
2023-05-03T12:29:35.463Z,3.88
2023-05-03T12:32:04.946Z,4.53
2023-05-03T12:34:36.017Z,5.53
2023-05-03T12:37:05.760Z,6.13
2023-05-03T12:39:34.475Z,5.80
2023-05-03T12:42:07.964Z,4.80
2023-05-03T12:44:36.536Z,5.82
2023-05-03T12:47:04.668Z,1.95
2023-05-03T12:49:32.627Z,3.63
2023-05-03T12:54:39.530Z,3.40
2023-05-03T12:57:15.634Z,2.13
2023-05-03T12:59:51.369Z,1.67
2023-05-03T13:04:58.844Z,3.40
2023-05-03T13:07:30.697Z,2.63
2023-05-03T13:12:31.030Z,4.05
2023-05-03T13:14:58.679Z,3.08
2023-05-03T13:17:26.208Z,6.40
2023-05-03T13:19:53.842Z,2.00
2023-05-03T13:22:22.177Z,2.17
2023-05-03T13:24:50.033Z,2.97
2023-05-03T13:27:18.147Z,1.90
2023-05-03T13:29:48.343Z,2.85
2023-05-03T13:32:17.055Z,2.47
2023-05-03T13:34:44.711Z,7.90
2023-05-03T13:37:14.025Z,1.77
2023-05-03T13:39:41.390Z,1.48
2023-05-03T13:42:09.681Z,2.33
2023-05-03T13:44:37.109Z,4.00
2023-05-03T13:47:04.620Z,3.75
2023-05-03T13:49:31.959Z,3.08
2023-05-03T13:51:59.368Z,5.30
2023-05-03T13:54:26.783Z,3.97
2023-05-03T13:56:54.142Z,3.83
2023-05-03T13:59:21.525Z,9.65
2023-05-03T14:01:48.959Z,1.25
2023-05-03T14:04:16.463Z,3.90
2023-05-03T14:06:43.893Z,3.55
2023-05-03T14:09:11.832Z,7.00
2023-05-03T14:11:40.457Z,3.03
2023-05-03T14:14:07.974Z,5.00
2023-05-03T14:16:41.330Z,1.00
2023-05-03T14:19:14.169Z,5.60
2023-05-03T14:21:42.899Z,6.07
2023-05-03T14:24:10.304Z,2.53
2023-05-03T14:26:38.017Z,3.22
2023-05-03T14:29:05.936Z,4.40
2023-05-03T14:31:34.462Z,0.80
2023-05-03T14:34:02.309Z,3.65
2023-05-03T14:36:34.845Z,2.80
2023-05-03T14:39:04.181Z,3.05
2023-05-03T14:41:33.364Z,3.55
2023-05-03T14:44:01.115Z,7.72
2023-05-03T14:46:28.579Z,1.67
2023-05-03T14:48:55.997Z,3.78
2023-05-03T14:51:23.973Z,9.32
2023-05-03T14:53:51.466Z,2.97
2023-05-03T14:56:18.934Z,6.45
2023-05-03T14:58:46.359Z,6.13
2023-05-03T15:01:18.433Z,3.92
2023-05-03T15:03:46.360Z,6.25
2023-05-03T15:06:19.361Z,3.88
2023-05-03T15:08:47.953Z,4.28
2023-05-03T15:11:15.375Z,1.85
2023-05-03T15:13:42.762Z,7.65
2023-05-03T15:16:10.204Z,1.95
2023-05-03T15:18:37.574Z,2.75
2023-05-03T15:21:05.337Z,3.78
2023-05-03T15:23:32.882Z,3.88
2023-05-03T15:26:00.401Z,4.75
2023-05-03T15:28:27.782Z,8.38
2023-05-03T15:30:55.124Z,3.45
2023-05-03T15:33:22.712Z,4.75
2023-05-03T15:35:50.162Z,4.10
2023-05-03T15:38:18.096Z,5.18
2023-05-03T15:40:45.540Z,8.88
2023-05-03T15:43:12.949Z,5.20
2023-05-03T15:45:40.409Z,3.58
2023-05-03T15:48:07.997Z,2.83
2023-05-03T15:50:35.468Z,3.38
2023-05-03T15:53:02.820Z,5.30
2023-05-03T15:55:30.398Z,7.97
2023-05-03T15:57:58.598Z,3.30
2023-05-03T16:00:27.768Z,4.32
2023-05-03T16:02:55.669Z,3.42
2023-05-03T16:05:23.513Z,2.30
2023-05-03T16:07:51.081Z,2.95
2023-05-03T16:10:18.539Z,3.03
2023-05-03T16:12:46.130Z,3.58
2023-05-03T16:15:13.605Z,6.32
2023-05-03T16:17:41.196Z,8.98
2023-05-03T16:20:12.421Z,3.58
2023-05-03T16:22:39.846Z,3.50
2023-05-03T16:25:07.569Z,4.10
2023-05-03T16:27:34.952Z,5.25
2023-05-03T16:30:02.852Z,8.25
2023-05-03T16:32:30.563Z,2.22
2023-05-03T16:34:57.990Z,2.22
2023-05-03T16:37:25.397Z,1.90
2023-05-03T16:39:52.824Z,4.20
2023-05-03T16:42:20.267Z,1.30
2023-05-03T16:44:47.861Z,2.63
2023-05-03T16:47:15.743Z,2.30
2023-05-03T16:49:43.422Z,3.45
2023-05-03T16:52:10.935Z,14.60
2023-05-03T16:54:38.430Z,2.60
2023-05-03T16:57:05.808Z,3.63
2023-05-03T16:59:33.204Z,4.95
2023-05-03T17:02:01.247Z,5.05
2023-05-03T17:04:29.348Z,2.88
2023-05-03T17:06:56.732Z,3.33
2023-05-03T17:09:24.201Z,7.53
2023-05-03T17:11:51.620Z,7.88
2023-05-03T17:14:19.084Z,4.80
2023-05-03T17:16:48.855Z,3.60
2023-05-03T17:19:16.377Z,4.00
2023-05-03T17:21:43.794Z,6.43
2023-05-03T17:24:11.819Z,4.88
2023-05-03T17:26:39.627Z,4.20
2023-05-03T17:29:07.724Z,7.95
2023-05-03T17:31:35.203Z,7.97
2023-05-03T17:34:02.645Z,5.35
2023-05-03T17:36:30.223Z,5.28
2023-05-03T17:38:57.693Z,2.78
2023-05-03T17:41:25.057Z,4.15
2023-05-03T17:43:52.457Z,6.32
2023-05-03T17:46:21.114Z,2.75
2023-05-03T17:48:48.706Z,3.00
2023-05-03T17:51:16.350Z,2.08
2023-05-03T17:53:43.807Z,2.72
2023-05-03T17:56:15.589Z,2.67
2023-05-03T17:58:43.781Z,3.70
2023-05-03T18:01:13.193Z,9.27
2023-05-03T18:03:43.920Z,2.15
2023-05-03T18:06:13.329Z,7.03
2023-05-03T18:08:41.521Z,3.30
2023-05-03T18:11:09.342Z,7.15
2023-05-03T18:13:36.773Z,5.00
2023-05-03T18:16:08.230Z,4.53
2023-05-03T18:18:35.824Z,5.70
2023-05-03T18:21:05.023Z,5.78
2023-05-03T18:23:32.804Z,1.50
2023-05-03T18:26:00.328Z,3.22
2023-05-03T18:28:27.809Z,2.20
2023-05-03T18:30:58.057Z,4.88
2023-05-03T18:33:25.587Z,4.50
2023-05-03T18:35:53.643Z,2.15
2023-05-03T18:38:21.718Z,3.22
2023-05-03T18:40:50.036Z,2.90
2023-05-03T18:43:17.926Z,2.40
2023-05-03T18:45:45.417Z,2.10
2023-05-03T18:48:12.892Z,4.72
2023-05-03T18:50:43.016Z,6.68
2023-05-03T18:53:11.038Z,2.30
2023-05-03T18:55:38.490Z,4.38
2023-05-03T18:58:05.964Z,3.72
2023-05-03T19:00:33.418Z,2.75
2023-05-03T19:03:01.241Z,2.42
2023-05-03T19:05:29.023Z,4.05
2023-05-03T19:07:56.421Z,3.42
2023-05-03T19:10:24.842Z,4.72
2023-05-03T19:12:53.420Z,3.80
2023-05-03T19:15:21.021Z,3.28
2023-05-03T19:17:48.440Z,4.00
2023-05-03T19:20:17.332Z,3.03
2023-05-03T19:22:44.865Z,4.90
2023-05-03T19:25:12.374Z,9.88
2023-05-03T19:27:39.770Z,16.00
2023-05-03T19:30:07.921Z,3.08
2023-05-03T19:32:38.999Z,4.25
2023-05-03T19:35:10.689Z,2.23
2023-05-03T19:37:38.341Z,8.80
2023-05-03T19:40:06.682Z,7.07
2023-05-03T19:42:34.448Z,3.92
2023-05-03T19:45:05.236Z,9.60
2023-05-03T19:47:33.089Z,2.55
2023-05-03T19:50:00.759Z,7.32
2023-05-03T19:52:28.116Z,3.05
2023-05-03T19:54:56.360Z,3.40
2023-05-03T19:57:23.866Z,9.18
2023-05-03T19:59:51.240Z,6.05
2023-05-03T20:02:18.715Z,10.15
2023-05-03T20:04:46.604Z,5.30
2023-05-03T20:07:14.024Z,5.60
2023-05-03T20:09:41.467Z,7.03
2023-05-03T20:12:10.826Z,6.57
2023-05-03T20:14:38.415Z,5.55
2023-05-03T20:17:05.826Z,10.57
2023-05-03T20:19:33.214Z,8.60
2023-05-03T20:22:00.709Z,15.32
2023-05-03T20:24:28.124Z,9.65
2023-05-03T20:26:55.542Z,7.18
2023-05-03T20:29:22.917Z,10.82
2023-05-03T20:31:55.818Z,8.25
2023-05-03T20:34:23.208Z,7.40
2023-05-03T20:36:51.831Z,4.85
2023-05-03T20:39:19.282Z,5.38
2023-05-03T20:41:46.798Z,7.88
2023-05-03T20:44:14.181Z,4.68
2023-05-03T20:46:41.749Z,2.90
2023-05-03T20:49:10.224Z,5.10
2023-05-03T20:51:38.041Z,5.35
2023-05-03T20:54:05.569Z,5.15
2023-05-03T20:56:33.593Z,3.67
2023-05-03T20:59:00.977Z,4.40
2023-05-03T21:01:28.363Z,4.38
2023-05-03T21:03:56.817Z,4.18
2023-05-03T21:06:24.217Z,9.38
2023-05-03T21:08:52.890Z,2.97
2023-05-03T21:11:20.317Z,9.60
2023-05-03T21:13:47.714Z,8.10
2023-05-03T21:16:15.168Z,8.38
2023-05-03T21:18:42.642Z,4.55
2023-05-03T21:21:10.049Z,4.10
2023-05-03T21:23:37.425Z,9.35
2023-05-03T21:26:04.801Z,3.85
2023-05-03T21:28:32.459Z,3.88
2023-05-03T21:30:59.984Z,4.30
2023-05-03T21:33:27.554Z,6.47
2023-05-03T21:35:54.908Z,3.92
2023-05-03T21:38:22.342Z,4.93
2023-05-03T21:40:49.758Z,6.75
2023-05-03T21:43:17.179Z,6.47
2023-05-03T21:45:44.600Z,6.00
2023-05-03T21:48:12.620Z,15.32
2023-05-03T21:50:40.355Z,10.82
2023-05-03T21:53:07.849Z,9.60
2023-05-03T21:55:35.389Z,6.57
2023-05-03T21:58:02.767Z,8.15
2023-05-03T22:00:31.688Z,4.78
2023-05-03T22:02:59.199Z,9.07
2023-05-03T22:05:26.717Z,6.93
2023-05-03T22:07:54.231Z,7.82
2023-05-03T22:10:21.633Z,6.72
2023-05-03T22:12:49.169Z,7.70
2023-05-03T22:15:16.970Z,4.85
2023-05-03T22:17:44.419Z,10.50
2023-05-03T22:20:12.271Z,6.32
2023-05-03T22:22:39.718Z,6.80
2023-05-03T22:25:07.328Z,4.70
2023-05-03T22:27:34.696Z,8.07
2023-05-03T22:30:02.316Z,12.02
2023-05-03T22:32:29.881Z,6.45
2023-05-03T22:34:57.243Z,7.03
2023-05-03T22:37:24.936Z,5.20
2023-05-03T22:39:52.445Z,5.32
2023-05-03T22:42:19.819Z,5.32
2023-05-03T22:44:47.219Z,3.75
2023-05-03T22:47:14.548Z,3.67
2023-05-03T22:49:41.870Z,6.70
2023-05-03T22:52:09.200Z,5.25
2023-05-03T22:54:36.616Z,5.30
2023-05-03T22:57:04.193Z,4.05
2023-05-03T22:59:31.596Z,3.58
2023-05-03T23:01:59.033Z,3.40
2023-05-03T23:04:26.736Z,3.25
2023-05-03T23:06:54.157Z,3.42
2023-05-03T23:09:21.582Z,5.78
2023-05-03T23:11:48.982Z,3.55
2023-05-03T23:14:16.428Z,3.25
2023-05-03T23:16:43.873Z,4.20
2023-05-03T23:19:11.818Z,5.00
2023-05-03T23:21:39.215Z,3.42
2023-05-03T23:24:07.173Z,7.28
2023-05-03T23:26:34.768Z,5.72
2023-05-03T23:29:02.715Z,3.53
2023-05-03T23:31:31.495Z,4.18
2023-05-03T23:34:01.147Z,3.63
2023-05-03T23:36:28.536Z,4.82
2023-05-03T23:38:55.894Z,3.97
2023-05-03T23:41:23.262Z,3.58
2023-05-03T23:43:50.645Z,4.05
2023-05-03T23:46:18.040Z,4.75
2023-05-03T23:48:45.443Z,5.15
2023-05-03T23:51:12.820Z,4.35
2023-05-03T23:53:40.178Z,7.45
2023-05-03T23:56:08.352Z,2.38
2023-05-03T23:58:35.745Z,2.53
